Champagne, Canada
Current Conditions -  °F | °C
As of 8:00 AM on Thursday 29 Jan 2015 (Local Time) from CYXY Reporting Station
Light Snow Light Snow  
Wind Chill: -25°   Ceiling: 3000
Heat Index: -8°   Visibility: 3mi
Dew Point: -15°   Wind: 9mph
Humidity: 71%   Direction: 320°NW
Pressure: 30.12"   Gusts: NA
Location:  60.79°N, 136.48°W
Report Text: CYXY 291600Z 32008KT 3SM -SN SCT018 OVC030 M22/M26 A3012 RMK SC3SC5 SLP280
Loading
Personal Weather Stations






























Interactive Weather Map New forecast layout! Learn more

10-Day Weather Forecast

Advertisements
Track Severe Weather on mobile